sensor_id;sensor_type;location;lat;lon;timestamp;pressure;altitude;pressure_sealevel;temperature;humidity
17311;BME280;8773;43.300;0.394;2022-07-06T00:00:48;100225.78;;;20.59;100.00
17311;BME280;8773;43.300;0.394;2022-07-06T00:03:16;100237.41;;;20.78;100.00
17311;BME280;8773;43.300;0.394;2022-07-06T00:05:46;100235.59;;;20.73;100.00
17311;BME280;8773;43.300;0.394;2022-07-06T00:08:14;100231.97;;;20.60;100.00
17311;BME280;8773;43.300;0.394;2022-07-06T00:10:42;100231.13;;;20.64;100.00
17311;BME280;8773;43.300;0.394;2022-07-06T00:13:13;100228.28;;;20.41;100.00
17311;BME280;8773;43.300;0.394;2022-07-06T00:15:48;100227.44;;;20.48;100.00
17311;BME280;8773;43.300;0.394;2022-07-06T00:18:16;100225.69;;;20.47;100.00
17311;BME280;8773;43.300;0.394;2022-07-06T00:20:46;100234.53;;;20.51;100.00
17311;BME280;8773;43.300;0.394;2022-07-06T00:23:14;100239.03;;;20.59;100.00
17311;BME280;8773;43.300;0.394;2022-07-06T00:25:42;100232.78;;;20.50;100.00
17311;BME280;8773;43.300;0.394;2022-07-06T00:28:11;100232.84;;;20.60;100.00
17311;BME280;8773;43.300;0.394;2022-07-06T00:30:39;100242.50;;;20.51;100.00
17311;BME280;8773;43.300;0.394;2022-07-06T00:33:07;100236.28;;;20.49;100.00
17311;BME280;8773;43.300;0.394;2022-07-06T00:35:38;100238.00;;;20.43;100.00
17311;BME280;8773;43.300;0.394;2022-07-06T00:38:10;100233.59;;;20.42;100.00
17311;BME280;8773;43.300;0.394;2022-07-06T00:40:38;100230.06;;;20.43;100.00
17311;BME280;8773;43.300;0.394;2022-07-06T00:43:07;100234.34;;;20.34;100.00
17311;BME280;8773;43.300;0.394;2022-07-06T00:45:37;100229.75;;;20.13;100.00
17311;BME280;8773;43.300;0.394;2022-07-06T00:48:05;100233.25;;;20.10;100.00
17311;BME280;8773;43.300;0.394;2022-07-06T00:50:34;100223.56;;;20.11;100.00
17311;BME280;8773;43.300;0.394;2022-07-06T00:53:04;100221.88;;;20.20;100.00
17311;BME280;8773;43.300;0.394;2022-07-06T00:55:38;100221.09;;;20.29;100.00
17311;BME280;8773;43.300;0.394;2022-07-06T00:58:07;100221.97;;;20.30;100.00
17311;BME280;8773;43.300;0.394;2022-07-06T01:00:36;100225.63;;;20.39;100.00
17311;BME280;8773;43.300;0.394;2022-07-06T01:03:05;100226.53;;;20.46;100.00
17311;BME280;8773;43.300;0.394;2022-07-06T01:05:35;100227.25;;;20.31;100.00
17311;BME280;8773;43.300;0.394;2022-07-06T01:08:04;100231.69;;;20.31;100.00
17311;BME280;8773;43.300;0.394;2022-07-06T01:10:32;100229.91;;;20.27;100.00
17311;BME280;8773;43.300;0.394;2022-07-06T01:13:01;100226.06;;;19.98;100.00
17311;BME280;8773;43.300;0.394;2022-07-06T01:15:29;100227.06;;;20.07;100.00
17311;BME280;8773;43.300;0.394;2022-07-06T01:17:57;100235.94;;;20.13;100.00
17311;BME280;8773;43.300;0.394;2022-07-06T01:20:29;100234.16;;;20.11;100.00
17311;BME280;8773;43.300;0.394;2022-07-06T01:22:59;100236.03;;;20.22;100.00
17311;BME280;8773;43.300;0.394;2022-07-06T01:25:27;100229.84;;;20.23;100.00
17311;BME280;8773;43.300;0.394;2022-07-06T01:27:55;100215.75;;;20.25;100.00
17311;BME280;8773;43.300;0.394;2022-07-06T01:30:23;100207.72;;;20.18;100.00
17311;BME280;8773;43.300;0.394;2022-07-06T01:32:51;100200.75;;;20.27;100.00
17311;BME280;8773;43.300;0.394;2022-07-06T01:35:19;100185.25;;;19.75;100.00
17311;BME280;8773;43.300;0.394;2022-07-06T01:37:49;100173.06;;;19.92;100.00
17311;BME280;8773;43.300;0.394;2022-07-06T01:40:17;100162.59;;;20.06;100.00
17311;BME280;8773;43.300;0.394;2022-07-06T01:42:45;100156.34;;;19.95;100.00
17311;BME280;8773;43.300;0.394;2022-07-06T01:45:13;100140.75;;;19.40;100.00
17311;BME280;8773;43.300;0.394;2022-07-06T01:47:42;100148.09;;;19.66;100.00
17311;BME280;8773;43.300;0.394;2022-07-06T01:50:10;100151.88;;;19.94;100.00
17311;BME280;8773;43.300;0.394;2022-07-06T01:52:38;100149.38;;;20.05;100.00
17311;BME280;8773;43.300;0.394;2022-07-06T01:55:08;100145.06;;;20.20;100.00
17311;BME280;8773;43.300;0.394;2022-07-06T01:57:36;100146.34;;;19.66;100.00
17311;BME280;8773;43.300;0.394;2022-07-06T02:00:08;100156.16;;;19.78;100.00
17311;BME280;8773;43.300;0.394;2022-07-06T02:02:36;100161.56;;;19.87;100.00
17311;BME280;8773;43.300;0.394;2022-07-06T02:05:04;100166.88;;;19.90;100.00
17311;BME280;8773;43.300;0.394;2022-07-06T02:07:35;100172.06;;;19.79;100.00
17311;BME280;8773;43.300;0.394;2022-07-06T02:10:04;100182.78;;;19.92;100.00
17311;BME280;8773;43.300;0.394;2022-07-06T02:12:33;100182.81;;;19.95;100.00
17311;BME280;8773;43.300;0.394;2022-07-06T02:15:02;100181.88;;;19.90;100.00
17311;BME280;8773;43.300;0.394;2022-07-06T02:17:30;100175.63;;;19.82;100.00
17311;BME280;8773;43.300;0.394;2022-07-06T02:19:58;100160.78;;;19.20;100.00
17311;BME280;8773;43.300;0.394;2022-07-06T02:22:26;100154.63;;;19.19;100.00
17311;BME280;8773;43.300;0.394;2022-07-06T02:24:54;100151.63;;;18.93;100.00
17311;BME280;8773;43.300;0.394;2022-07-06T02:27:22;100156.34;;;19.19;100.00
17311;BME280;8773;43.300;0.394;2022-07-06T02:29:53;100156.91;;;18.93;100.00
17311;BME280;8773;43.300;0.394;2022-07-06T02:32:20;100157.19;;;19.16;100.00
17311;BME280;8773;43.300;0.394;2022-07-06T02:34:48;100157.34;;;19.27;100.00
17311;BME280;8773;43.300;0.394;2022-07-06T02:37:16;100149.00;;;18.94;100.00
17311;BME280;8773;43.300;0.394;2022-07-06T02:39:44;100143.97;;;19.16;100.00
17311;BME280;8773;43.300;0.394;2022-07-06T02:42:12;100143.53;;;19.52;100.00
17311;BME280;8773;43.300;0.394;2022-07-06T02:44:40;100148.09;;;19.66;100.00
17311;BME280;8773;43.300;0.394;2022-07-06T02:47:10;100158.16;;;19.99;100.00
17311;BME280;8773;43.300;0.394;2022-07-06T02:49:38;100163.63;;;20.19;100.00
17311;BME280;8773;43.300;0.394;2022-07-06T02:52:06;100169.91;;;20.35;100.00
17311;BME280;8773;43.300;0.394;2022-07-06T02:54:34;100177.81;;;20.30;100.00
17311;BME280;8773;43.300;0.394;2022-07-06T02:57:02;100182.28;;;20.34;100.00
17311;BME280;8773;43.300;0.394;2022-07-06T02:59:31;100176.22;;;20.44;100.00
17311;BME280;8773;43.300;0.394;2022-07-06T03:01:59;100182.44;;;20.50;100.00
17311;BME280;8773;43.300;0.394;2022-07-06T03:04:28;100177.16;;;20.56;100.00
17311;BME280;8773;43.300;0.394;2022-07-06T03:06:56;100163.13;;;20.69;100.00
17311;BME280;8773;43.300;0.394;2022-07-06T03:09:24;100169.25;;;20.60;100.00
17311;BME280;8773;43.300;0.394;2022-07-06T03:11:52;100168.34;;;20.58;100.00
17311;BME280;8773;43.300;0.394;2022-07-06T03:14:20;100162.97;;;20.48;100.00
17311;BME280;8773;43.300;0.394;2022-07-06T03:16:48;100165.63;;;20.51;100.00
17311;BME280;8773;43.300;0.394;2022-07-06T03:19:17;100164.84;;;20.62;100.00
17311;BME280;8773;43.300;0.394;2022-07-06T03:21:46;100164.06;;;20.77;100.00
17311;BME280;8773;43.300;0.394;2022-07-06T03:24:14;100175.56;;;20.79;100.00
17311;BME280;8773;43.300;0.394;2022-07-06T03:26:42;100178.19;;;20.78;100.00
17311;BME280;8773;43.300;0.394;2022-07-06T03:29:11;100182.59;;;20.74;100.00
17311;BME280;8773;43.300;0.394;2022-07-06T03:31:39;100189.75;;;20.87;100.00
17311;BME280;8773;43.300;0.394;2022-07-06T03:34:08;100188.88;;;20.87;100.00
17311;BME280;8773;43.300;0.394;2022-07-06T03:36:36;100189.72;;;20.84;100.00
17311;BME280;8773;43.300;0.394;2022-07-06T03:39:06;100192.25;;;20.66;100.00
17311;BME280;8773;43.300;0.394;2022-07-06T03:41:35;100194.91;;;20.64;100.00
17311;BME280;8773;43.300;0.394;2022-07-06T03:44:03;100200.09;;;20.49;100.00
17311;BME280;8773;43.300;0.394;2022-07-06T03:46:31;100187.53;;;20.31;100.00
17311;BME280;8773;43.300;0.394;2022-07-06T03:49:00;100192.16;;;20.52;100.00
17311;BME280;8773;43.300;0.394;2022-07-06T03:51:28;100178.63;;;20.20;100.00
17311;BME280;8773;43.300;0.394;2022-07-06T03:53:55;100186.56;;;20.17;100.00
17311;BME280;8773;43.300;0.394;2022-07-06T03:56:30;100187.28;;;20.02;100.00
17311;BME280;8773;43.300;0.394;2022-07-06T03:59:02;100190.13;;;20.23;100.00
17311;BME280;8773;43.300;0.394;2022-07-06T04:01:31;100198.09;;;20.28;100.00
17311;BME280;8773;43.300;0.394;2022-07-06T04:03:59;100211.38;;;20.27;100.00
17311;BME280;8773;43.300;0.394;2022-07-06T04:06:27;100207.72;;;20.15;100.00
17311;BME280;8773;43.300;0.394;2022-07-06T04:08:55;100205.94;;;20.14;100.00
17311;BME280;8773;43.300;0.394;2022-07-06T04:11:23;100208.53;;;20.08;100.00
17311;BME280;8773;43.300;0.394;2022-07-06T04:13:52;100213.09;;;20.21;100.00
17311;BME280;8773;43.300;0.394;2022-07-06T04:16:21;100209.75;;;20.46;100.00
17311;BME280;8773;43.300;0.394;2022-07-06T04:18:49;100206.31;;;20.56;100.00
17311;BME280;8773;43.300;0.394;2022-07-06T04:21:17;100218.75;;;20.66;100.00
17311;BME280;8773;43.300;0.394;2022-07-06T04:23:45;100222.34;;;20.76;100.00
17311;BME280;8773;43.300;0.394;2022-07-06T04:26:14;100224.97;;;20.68;100.00
17311;BME280;8773;43.300;0.394;2022-07-06T04:28:41;100228.38;;;20.56;100.00
17311;BME280;8773;43.300;0.394;2022-07-06T04:31:11;100226.59;;;20.51;100.00
17311;BME280;8773;43.300;0.394;2022-07-06T04:33:42;100223.13;;;20.61;100.00
17311;BME280;8773;43.300;0.394;2022-07-06T04:36:10;100220.38;;;20.49;100.00
17311;BME280;8773;43.300;0.394;2022-07-06T04:38:38;100210.81;;;20.64;100.00
17311;BME280;8773;43.300;0.394;2022-07-06T04:41:07;100214.47;;;20.82;100.00
17311;BME280;8773;43.300;0.394;2022-07-06T04:43:35;100214.13;;;20.37;100.00
17311;BME280;8773;43.300;0.394;2022-07-06T04:46:03;100208.75;;;20.33;100.00
17311;BME280;8773;43.300;0.394;2022-07-06T04:48:33;100201.59;;;20.22;100.00
17311;BME280;8773;43.300;0.394;2022-07-06T04:51:05;100196.25;;;20.18;100.00
17311;BME280;8773;43.300;0.394;2022-07-06T04:53:33;100194.22;;;19.88;100.00
17311;BME280;8773;43.300;0.394;2022-07-06T04:56:03;100204.72;;;19.80;100.00
17311;BME280;8773;43.300;0.394;2022-07-06T04:58:31;100226.28;;;20.17;100.00
17311;BME280;8773;43.300;0.394;2022-07-06T05:00:59;100234.44;;;20.38;100.00
17311;BME280;8773;43.300;0.394;2022-07-06T05:03:28;100221.31;;;20.55;100.00
17311;BME280;8773;43.300;0.394;2022-07-06T05:05:57;100220.38;;;20.47;100.00
17311;BME280;8773;43.300;0.394;2022-07-06T05:08:25;100220.03;;;20.10;100.00
17311;BME280;8773;43.300;0.394;2022-07-06T05:10:53;100222.84;;;20.29;100.00
17311;BME280;8773;43.300;0.394;2022-07-06T05:13:22;100216.59;;;20.23;100.00
17311;BME280;8773;43.300;0.394;2022-07-06T05:15:50;100219.03;;;19.97;100.00
17311;BME280;8773;43.300;0.394;2022-07-06T05:18:18;100241.28;;;20.18;100.00
17311;BME280;8773;43.300;0.394;2022-07-06T05:20:46;100260.13;;;20.44;100.00
17311;BME280;8773;43.300;0.394;2022-07-06T05:23:16;100265.50;;;20.55;100.00
17311;BME280;8773;43.300;0.394;2022-07-06T05:25:44;100276.19;;;20.65;100.00
17311;BME280;8773;43.300;0.394;2022-07-06T05:28:12;100270.88;;;20.64;100.00
17311;BME280;8773;43.300;0.394;2022-07-06T05:30:40;100276.19;;;20.64;100.00
17311;BME280;8773;43.300;0.394;2022-07-06T05:33:08;100284.28;;;20.82;100.00
17311;BME280;8773;43.300;0.394;2022-07-06T05:35:36;100302.00;;;20.88;100.00
17311;BME280;8773;43.300;0.394;2022-07-06T05:38:19;100318.84;;;20.95;100.00
17311;BME280;8773;43.300;0.394;2022-07-06T05:41:08;100317.88;;;20.85;100.00
17311;BME280;8773;43.300;0.394;2022-07-06T05:44:09;100298.22;;;20.60;100.00
17311;BME280;8773;43.300;0.394;2022-07-06T05:47:09;100285.59;;;20.36;100.00
17311;BME280;8773;43.300;0.394;2022-07-06T05:50:31;100289.41;;;20.62;100.00
17311;BME280;8773;43.300;0.394;2022-07-06T05:53:32;100292.00;;;20.55;100.00
17311;BME280;8773;43.300;0.394;2022-07-06T05:56:18;100281.50;;;20.69;100.00
17311;BME280;8773;43.300;0.394;2022-07-06T05:59:05;100247.84;;;20.57;100.00
17311;BME280;8773;43.300;0.394;2022-07-06T06:01:53;100231.00;;;20.50;100.00
17311;BME280;8773;43.300;0.394;2022-07-06T06:04:41;100220.53;;;20.64;100.00
17311;BME280;8773;43.300;0.394;2022-07-06T06:07:30;100241.09;;;21.02;100.00
17311;BME280;8773;43.300;0.394;2022-07-06T06:10:20;100263.69;;;20.51;100.00
17311;BME280;8773;43.300;0.394;2022-07-06T06:13:10;100252.03;;;20.32;100.00
17311;BME280;8773;43.300;0.394;2022-07-06T06:15:58;100242.53;;;19.67;100.00
17311;BME280;8773;43.300;0.394;2022-07-06T06:18:46;100226.00;;;19.89;100.00
17311;BME280;8773;43.300;0.394;2022-07-06T06:21:35;100211.78;;;19.79;100.00
17311;BME280;8773;43.300;0.394;2022-07-06T06:24:23;100212.69;;;19.83;100.00
17311;BME280;8773;43.300;0.394;2022-07-06T06:27:16;100200.84;;;19.53;100.00
17311;BME280;8773;43.300;0.394;2022-07-06T06:30:06;100178.72;;;19.45;100.00
17311;BME280;8773;43.300;0.394;2022-07-06T06:33:05;100187.00;;;19.73;100.00
17311;BME280;8773;43.300;0.394;2022-07-06T06:35:54;100198.63;;;19.89;100.00
17311;BME280;8773;43.300;0.394;2022-07-06T06:38:42;100170.13;;;19.63;100.00
17311;BME280;8773;43.300;0.394;2022-07-06T06:41:30;100118.03;;;18.84;100.00
17311;BME280;8773;43.300;0.394;2022-07-06T06:44:20;100061.59;;;18.18;100.00
17311;BME280;8773;43.300;0.394;2022-07-06T06:47:08;100022.78;;;18.14;100.00
17311;BME280;8773;43.300;0.394;2022-07-06T06:49:55;100071.53;;;18.36;100.00
17311;BME280;8773;43.300;0.394;2022-07-06T06:52:41;100152.00;;;18.61;100.00
17311;BME280;8773;43.300;0.394;2022-07-06T06:55:28;100186.94;;;18.40;100.00
17311;BME280;8773;43.300;0.394;2022-07-06T06:58:15;100216.56;;;18.22;100.00
17311;BME280;8773;43.300;0.394;2022-07-06T07:01:03;100238.84;;;18.38;100.00
17311;BME280;8773;43.300;0.394;2022-07-06T07:03:50;100251.66;;;18.67;100.00
17311;BME280;8773;43.300;0.394;2022-07-06T07:06:37;100274.09;;;18.92;100.00
17311;BME280;8773;43.300;0.394;2022-07-06T07:09:24;100289.84;;;18.86;100.00
17311;BME280;8773;43.300;0.394;2022-07-06T07:12:10;100282.25;;;19.07;100.00
17311;BME280;8773;43.300;0.394;2022-07-06T07:14:57;100279.88;;;19.26;100.00
17311;BME280;8773;43.300;0.394;2022-07-06T07:17:45;100295.84;;;19.32;100.00
17311;BME280;8773;43.300;0.394;2022-07-06T07:20:32;100287.84;;;19.29;100.00
17311;BME280;8773;43.300;0.394;2022-07-06T07:23:19;100286.34;;;19.48;100.00
17311;BME280;8773;43.300;0.394;2022-07-06T07:26:05;100283.22;;;19.78;100.00
17311;BME280;8773;43.300;0.394;2022-07-06T07:28:52;100290.31;;;19.79;100.00
17311;BME280;8773;43.300;0.394;2022-07-06T07:31:39;100277.66;;;19.58;100.00
17311;BME280;8773;43.300;0.394;2022-07-06T07:34:27;100247.00;;;18.52;100.00
17311;BME280;8773;43.300;0.394;2022-07-06T07:37:14;100209.63;;;17.80;100.00
17311;BME280;8773;43.300;0.394;2022-07-06T07:40:00;100202.75;;;17.92;100.00
17311;BME280;8773;43.300;0.394;2022-07-06T07:42:48;100191.97;;;18.26;100.00
17311;BME280;8773;43.300;0.394;2022-07-06T07:45:33;100192.56;;;18.63;100.00
17311;BME280;8773;43.300;0.394;2022-07-06T07:48:02;100176.53;;;18.51;100.00
17311;BME280;8773;43.300;0.394;2022-07-06T07:50:50;100147.50;;;17.98;100.00
17311;BME280;8773;43.300;0.394;2022-07-06T07:53:38;100139.19;;;17.78;100.00
17311;BME280;8773;43.300;0.394;2022-07-06T07:56:26;100134.34;;;18.01;100.00
17311;BME280;8773;43.300;0.394;2022-07-06T07:59:15;100121.47;;;18.19;100.00
17311;BME280;8773;43.300;0.394;2022-07-06T08:01:43;100109.56;;;18.49;100.00
17311;BME280;8773;43.300;0.394;2022-07-06T08:04:13;100123.91;;;18.66;100.00
17311;BME280;8773;43.300;0.394;2022-07-06T08:06:49;100176.59;;;19.15;100.00
17311;BME280;8773;43.300;0.394;2022-07-06T08:09:43;100221.81;;;19.36;100.00
17311;BME280;8773;43.300;0.394;2022-07-06T08:14:42;100218.69;;;19.67;100.00
17311;BME280;8773;43.300;0.394;2022-07-06T08:17:24;100227.00;;;19.99;100.00
17311;BME280;8773;43.300;0.394;2022-07-06T08:19:52;100214.59;;;19.98;100.00
17311;BME280;8773;43.300;0.394;2022-07-06T08:22:48;100204.53;;;20.52;100.00
17311;BME280;8773;43.300;0.394;2022-07-06T08:25:19;100215.56;;;21.15;100.00
17311;BME280;8773;43.300;0.394;2022-07-06T08:27:56;100206.03;;;21.60;100.00
17311;BME280;8773;43.300;0.394;2022-07-06T08:30:25;100208.75;;;21.84;100.00
17311;BME280;8773;43.300;0.394;2022-07-06T08:33:13;100211.47;;;22.46;100.00
17311;BME280;8773;43.300;0.394;2022-07-06T08:35:41;100218.59;;;22.71;100.00
17311;BME280;8773;43.300;0.394;2022-07-06T08:38:11;100234.34;;;23.53;100.00
17311;BME280;8773;43.300;0.394;2022-07-06T08:40:40;100254.59;;;23.95;100.00
17311;BME280;8773;43.300;0.394;2022-07-06T08:43:09;100264.47;;;23.69;100.00
17311;BME280;8773;43.300;0.394;2022-07-06T08:45:37;100266.38;;;23.28;100.00
17311;BME280;8773;43.300;0.394;2022-07-06T08:48:07;100256.66;;;23.06;100.00
17311;BME280;8773;43.300;0.394;2022-07-06T08:50:35;100243.44;;;22.60;100.00
17311;BME280;8773;43.300;0.394;2022-07-06T08:53:04;100241.59;;;22.40;100.00
17311;BME280;8773;43.300;0.394;2022-07-06T08:55:34;100238.94;;;22.28;100.00
17311;BME280;8773;43.300;0.394;2022-07-06T08:58:03;100246.06;;;22.58;100.00
17311;BME280;8773;43.300;0.394;2022-07-06T09:00:33;100248.72;;;22.73;100.00
17311;BME280;8773;43.300;0.394;2022-07-06T09:03:02;100250.44;;;23.31;100.00
17311;BME280;8773;43.300;0.394;2022-07-06T09:05:31;100259.19;;;23.59;100.00
17311;BME280;8773;43.300;0.394;2022-07-06T09:08:00;100264.44;;;23.76;100.00
17311;BME280;8773;43.300;0.394;2022-07-06T09:10:29;100260.81;;;23.94;100.00
17311;BME280;8773;43.300;0.394;2022-07-06T09:13:06;100271.41;;;24.05;100.00
17311;BME280;8773;43.300;0.394;2022-07-06T09:15:43;100275.00;;;23.98;100.00
17311;BME280;8773;43.300;0.394;2022-07-06T09:18:11;100280.50;;;23.58;100.00
17311;BME280;8773;43.300;0.394;2022-07-06T09:20:40;100291.00;;;23.85;100.00
17311;BME280;8773;43.300;0.394;2022-07-06T09:23:08;100294.50;;;24.09;100.00
17311;BME280;8773;43.300;0.394;2022-07-06T09:25:42;100303.56;;;23.62;100.00
17311;BME280;8773;43.300;0.394;2022-07-06T09:28:16;100302.44;;;24.15;100.00
17311;BME280;8773;43.300;0.394;2022-07-06T09:30:44;100312.31;;;23.98;100.00
17311;BME280;8773;43.300;0.394;2022-07-06T09:33:17;100318.41;;;24.21;100.00
17311;BME280;8773;43.300;0.394;2022-07-06T09:35:45;100321.16;;;24.09;100.00
17311;BME280;8773;43.300;0.394;2022-07-06T09:38:15;100307.69;;;24.29;100.00
17311;BME280;8773;43.300;0.394;2022-07-06T09:40:49;100318.22;;;24.47;100.00
17311;BME280;8773;43.300;0.394;2022-07-06T09:43:20;100312.75;;;24.70;100.00
17311;BME280;8773;43.300;0.394;2022-07-06T09:45:50;100316.50;;;24.40;100.00
17311;BME280;8773;43.300;0.394;2022-07-06T09:48:22;100319.13;;;24.51;100.00
17311;BME280;8773;43.300;0.394;2022-07-06T09:50:53;100321.13;;;24.12;100.00
17311;BME280;8773;43.300;0.394;2022-07-06T09:53:22;100319.44;;;23.90;100.00
17311;BME280;8773;43.300;0.394;2022-07-06T09:55:53;100312.34;;;23.89;100.00
17311;BME280;8773;43.300;0.394;2022-07-06T09:58:23;100311.25;;;24.31;100.00
17311;BME280;8773;43.300;0.394;2022-07-06T10:01:11;100323.50;;;24.58;100.00
17311;BME280;8773;43.300;0.394;2022-07-06T10:03:40;100317.31;;;24.51;100.00
17311;BME280;8773;43.300;0.394;2022-07-06T10:06:09;100303.44;;;23.99;100.00
17311;BME280;8773;43.300;0.394;2022-07-06T10:08:38;100290.00;;;24.17;100.00
17311;BME280;8773;43.300;0.394;2022-07-06T10:11:09;100291.53;;;24.52;100.00
17311;BME280;8773;43.300;0.394;2022-07-06T10:13:44;100275.50;;;24.57;100.00
17311;BME280;8773;43.300;0.394;2022-07-06T10:16:15;100264.91;;;24.49;100.00
17311;BME280;8773;43.300;0.394;2022-07-06T10:18:45;100263.63;;;24.94;100.00
17311;BME280;8773;43.300;0.394;2022-07-06T10:21:15;100259.88;;;25.12;100.00
17311;BME280;8773;43.300;0.394;2022-07-06T10:23:44;100258.16;;;25.05;100.00
17311;BME280;8773;43.300;0.394;2022-07-06T10:26:12;100257.53;;;24.82;100.00
17311;BME280;8773;43.300;0.394;2022-07-06T10:28:43;100272.69;;;24.77;100.00
17311;BME280;8773;43.300;0.394;2022-07-06T10:31:13;100281.34;;;25.00;100.00
17311;BME280;8773;43.300;0.394;2022-07-06T10:33:43;100299.78;;;25.31;100.00
17311;BME280;8773;43.300;0.394;2022-07-06T10:36:12;100309.47;;;25.41;100.00
17311;BME280;8773;43.300;0.394;2022-07-06T10:38:48;100317.06;;;25.75;100.00
17311;BME280;8773;43.300;0.394;2022-07-06T10:41:30;100326.88;;;25.73;100.00
17311;BME280;8773;43.300;0.394;2022-07-06T10:44:14;100327.56;;;25.93;100.00
17311;BME280;8773;43.300;0.394;2022-07-06T10:46:50;100342.78;;;25.87;100.00
17311;BME280;8773;43.300;0.394;2022-07-06T10:49:19;100338.88;;;26.12;100.00
17311;BME280;8773;43.300;0.394;2022-07-06T10:52:08;100325.47;;;26.15;100.00
17311;BME280;8773;43.300;0.394;2022-07-06T10:54:39;100329.09;;;26.11;100.00
17311;BME280;8773;43.300;0.394;2022-07-06T10:57:09;100317.97;;;25.72;100.00
17311;BME280;8773;43.300;0.394;2022-07-06T10:59:39;100313.38;;;25.87;100.00
17311;BME280;8773;43.300;0.394;2022-07-06T11:02:14;100305.25;;;26.58;100.00
17311;BME280;8773;43.300;0.394;2022-07-06T11:04:43;100306.88;;;26.68;100.00
17311;BME280;8773;43.300;0.394;2022-07-06T11:07:13;100307.44;;;26.31;100.00
17311;BME280;8773;43.300;0.394;2022-07-06T11:09:41;100311.97;;;26.26;100.00
17311;BME280;8773;43.300;0.394;2022-07-06T11:12:18;100307.25;;;26.40;100.00
17311;BME280;8773;43.300;0.394;2022-07-06T11:14:49;100300.94;;;26.48;100.00
17311;BME280;8773;43.300;0.394;2022-07-06T11:17:19;100296.84;;;26.24;100.00
17311;BME280;8773;43.300;0.394;2022-07-06T11:19:49;100293.47;;;26.11;100.00
17311;BME280;8773;43.300;0.394;2022-07-06T11:22:24;100293.81;;;25.86;100.00
17311;BME280;8773;43.300;0.394;2022-07-06T11:24:54;100299.34;;;26.36;100.00
17311;BME280;8773;43.300;0.394;2022-07-06T11:27:23;100293.81;;;26.45;100.00
17311;BME280;8773;43.300;0.394;2022-07-06T11:29:53;100288.84;;;26.78;100.00
17311;BME280;8773;43.300;0.394;2022-07-06T11:32:23;100289.09;;;26.66;100.00
17311;BME280;8773;43.300;0.394;2022-07-06T11:34:52;100286.16;;;26.79;100.00
17311;BME280;8773;43.300;0.394;2022-07-06T11:37:20;100283.06;;;27.02;100.00
17311;BME280;8773;43.300;0.394;2022-07-06T11:39:50;100282.25;;;26.99;100.00
17311;BME280;8773;43.300;0.394;2022-07-06T11:42:18;100289.63;;;26.86;100.00
17311;BME280;8773;43.300;0.394;2022-07-06T11:44:46;100293.09;;;26.91;100.00
17311;BME280;8773;43.300;0.394;2022-07-06T11:47:18;100284.22;;;26.88;100.00
17311;BME280;8773;43.300;0.394;2022-07-06T11:49:50;100285.81;;;26.98;100.00
17311;BME280;8773;43.300;0.394;2022-07-06T11:52:19;100289.97;;;26.64;100.00
17311;BME280;8773;43.300;0.394;2022-07-06T11:54:57;100288.75;;;26.28;100.00
17311;BME280;8773;43.300;0.394;2022-07-06T11:57:26;100293.88;;;25.77;100.00
17311;BME280;8773;43.300;0.394;2022-07-06T11:59:58;100290.63;;;25.53;100.00
17311;BME280;8773;43.300;0.394;2022-07-06T12:02:27;100288.13;;;25.35;100.00
17311;BME280;8773;43.300;0.394;2022-07-06T12:04:57;100286.31;;;25.42;100.00
17311;BME280;8773;43.300;0.394;2022-07-06T12:07:27;100270.50;;;25.22;100.00
17311;BME280;8773;43.300;0.394;2022-07-06T12:09:55;100270.13;;;25.52;100.00
17311;BME280;8773;43.300;0.394;2022-07-06T12:12:27;100273.19;;;25.15;100.00
17311;BME280;8773;43.300;0.394;2022-07-06T12:14:55;100258.84;;;25.27;100.00
17311;BME280;8773;43.300;0.394;2022-07-06T12:17:23;100254.81;;;25.67;100.00
17311;BME280;8773;43.300;0.394;2022-07-06T12:19:54;100250.41;;;25.64;100.00
17311;BME280;8773;43.300;0.394;2022-07-06T12:22:25;100238.97;;;25.53;100.00
17311;BME280;8773;43.300;0.394;2022-07-06T12:24:53;100229.97;;;25.60;100.00
17311;BME280;8773;43.300;0.394;2022-07-06T12:27:21;100240.22;;;26.53;100.00
17311;BME280;8773;43.300;0.394;2022-07-06T12:29:50;100238.59;;;26.46;100.00
17311;BME280;8773;43.300;0.394;2022-07-06T12:32:19;100240.56;;;26.30;100.00
17311;BME280;8773;43.300;0.394;2022-07-06T12:35:03;100240.63;;;26.25;100.00
17311;BME280;8773;43.300;0.394;2022-07-06T12:37:58;100248.97;;;26.05;100.00
17311;BME280;8773;43.300;0.394;2022-07-06T12:40:58;100240.63;;;26.28;100.00
17311;BME280;8773;43.300;0.394;2022-07-06T12:44:06;100229.66;;;25.85;100.00
17311;BME280;8773;43.300;0.394;2022-07-06T12:46:44;100235.34;;;26.22;100.00
17311;BME280;8773;43.300;0.394;2022-07-06T12:49:15;100234.28;;;26.32;100.00
17311;BME280;8773;43.300;0.394;2022-07-06T12:51:57;100232.47;;;26.36;100.00
17311;BME280;8773;43.300;0.394;2022-07-06T12:54:27;100239.72;;;26.80;100.00
17311;BME280;8773;43.300;0.394;2022-07-06T12:57:09;100237.53;;;26.53;100.00
17311;BME280;8773;43.300;0.394;2022-07-06T12:59:41;100236.47;;;26.63;100.00
17311;BME280;8773;43.300;0.394;2022-07-06T13:02:17;100233.59;;;26.75;100.00
17311;BME280;8773;43.300;0.394;2022-07-06T13:05:04;100234.00;;;26.52;100.00
17311;BME280;8773;43.300;0.394;2022-07-06T13:07:36;100237.19;;;26.74;100.00
17311;BME280;8773;43.300;0.394;2022-07-06T13:10:07;100219.03;;;26.92;100.00
17311;BME280;8773;43.300;0.394;2022-07-06T13:12:36;100237.13;;;26.77;100.00
17311;BME280;8773;43.300;0.394;2022-07-06T13:15:05;100233.72;;;26.68;100.00
17311;BME280;8773;43.300;0.394;2022-07-06T13:17:34;100232.66;;;26.78;100.00
17311;BME280;8773;43.300;0.394;2022-07-06T13:20:02;100230.44;;;26.52;100.00
17311;BME280;8773;43.300;0.394;2022-07-06T13:22:30;100232.28;;;26.98;100.00
17311;BME280;8773;43.300;0.394;2022-07-06T13:25:00;100232.19;;;27.04;100.00